Sweeney Granite Mountains, California Weather observations

Data are for 10 minute period ending at time listed.
 Day   Time   Solar   Ave.   Ave.  Ave.  Vector  Max.   Baro.   Total    
  of    of     Rad.   Air    Rel.  Wind   Wind   Wind  Press.  Precip.   
Year   Day            Temp.  Hum.  Speed  Dir.   Gust                    
2016   (PST)  Kw/m2    F      %     mph   deg.    mph    mb.     in.     
-------------------------------------------------------------------------
  39   13:10   0.66   66.1    14    5.7   117    14.4   878.4    0.00 
  39   13:20   0.67   66.5    13    3.9   123     9.3   878.4    0.00 
  39   13:30   0.66   65.6    14    5.0   144     9.7   878.3    0.00 
  39   13:40   0.64   66.3    14    5.8   120    10.1   878.3    0.00 
  39   13:50   0.62   65.6    14    6.7   132    13.1   878.2    0.00 
  39   14:00   0.60   65.6    14    6.5   122    12.3   878.2    0.00 
  39   14:10   0.58   65.8    14    6.6   108    12.0   878.2    0.00 
  39   14:20   0.55   65.4    14    6.6   127    12.7   878.1    0.00 
  39   14:30   0.53   65.5    14    4.6   133     8.5   878.2    0.00 
  39   14:40   0.50   65.9    14    3.4   140     8.4   878.2    0.00 
  39   14:50   0.48   66.9    14    2.7   176     5.9   878.1    0.00 
  39   15:00   0.45   66.7    13    3.2    64     6.7   878.1    0.00 
  39   15:10   0.42   67.3    13    2.9   113     6.6   878.1    0.00 
  39   15:20   0.39   68.1    13    2.6   163     9.5   878.0    0.00 
  39   15:30   0.35   67.4    13    3.1   299     7.5   878.0    0.00 
  39   15:40   0.32   64.3    17   11.1   305    22.6   878.0    0.00 
  39   15:50   0.07   60.5    20   14.3   307    22.2   877.9    0.00 
  39   16:00   0.03   60.1    20   13.7   308    22.6   877.9    0.00 
  39   16:10   0.01   59.9    20   14.0   308    21.2   877.9    0.00 
  39   16:20   0.01   59.6    20   14.6   306    18.8   877.8    0.00 
  39   16:30   0.01   59.7    20   14.4   304    19.2   877.8    0.00 
  39   16:40   0.01   60.0    20   12.3   305    16.1   877.8    0.00 
  39   16:50   0.01   59.3    20   13.1   306    20.1   877.7    0.00 
  39   17:00   0.01   58.9    21   13.9   312    20.1   877.7    0.00 
  39   17:10   0.00   58.9    20   12.7   315    17.2   877.6    0.00 
  39   17:20   0.00   58.8    21   13.6   311    19.4   877.5    0.00 
  39   17:30   0.00   59.3    19   13.2   316    19.4   877.5    0.00 
  39   17:40   0.00   59.2    19   11.9   310    16.3   877.6    0.00 
  39   17:50   0.00   59.2    19   12.5   309    19.0   877.7    0.00 
  39   18:00   0.00   58.5    20   13.0   304    17.6   877.7    0.00 
  39   18:10   0.00   58.5    19   12.9   306    17.8   877.7    0.00 
  39   18:20   0.00   59.3    18   10.9   305    15.9   877.7    0.00 
  39   18:30   0.00   59.4    17   10.0   301    14.1   877.7    0.00 
  39   18:40   0.00   59.3    17    9.2   303    13.0   877.8    0.00 
  39   18:50   0.00   60.0    16    7.1   306    14.0   877.8    0.00 
  39   19:00   0.00   61.2    14    4.6   294    12.1   877.8    0.00 
  39   19:10   0.00   61.4    15    7.1   297    16.7   877.9    0.00 
  39   19:20   0.00   60.5    15    8.0   302    12.2   877.9    0.00 
  39   19:30   0.00   60.5    15    7.9   302    11.2   877.9    0.00 
  39   19:40   0.00   61.0    15    5.4   286    10.2   878.0    0.00 
  39   19:50   0.00   61.7    15    3.2   217     7.1   878.0    0.00 
  39   20:00   0.00   61.6    15    2.0   296     6.8   878.1    0.00 
  39   20:10   0.00   61.3    15    2.8   288     6.9   878.1    0.00 
  39   20:20   0.00   60.6    16    3.0   284     7.0   878.1    0.00 
  39   20:30   0.00   60.6    17    2.0   269     7.2   878.1    0.00 
  39   20:40   0.00   61.4    16    4.1   304     8.9   878.1    0.00 
  39   20:50   0.00   62.4    16    2.5   261    12.1   878.1    0.00 
  39   21:00   0.00   61.6    16    2.4    99     5.8   878.1    0.00 
  39   21:10   0.00   61.2    17    2.2   310     6.6   878.2    0.00 
  39   21:20   0.00   59.2    18    2.7   276     5.3   878.2    0.00 
  39   21:30   0.00   60.6    17    3.0   328     5.7   878.2    0.00 
  39   21:40   0.00   60.1    17    1.1   273     3.8   878.3    0.00 
  39   21:50   0.00   57.5    20    1.9   290     4.6   878.2    0.00 
  39   22:00   0.00   57.7    19    2.1   351     9.9   878.1    0.00 
  39   22:10   0.00   57.0    20    3.4   314     7.5   878.1    0.00 
  39   22:20   0.00   58.4    18    3.7   302     6.7   878.1    0.00 
  39   22:30   0.00   60.4    17    1.9   336     5.4   878.2    0.00 
  39   22:40   0.00   60.7    17    2.3   269     5.1   878.3    0.00 
  39   22:50   0.00   61.2    16    4.0   325     9.9   878.3    0.00 
  39   23:00   0.00   59.6    18    3.5   311     5.8   878.3    0.00 
  39   23:10   0.00   58.3    19    2.3     8     4.7   878.3    0.00 
  39   23:20   0.00   57.8    20    3.1     2     6.9   878.3    0.00 
  39   23:30   0.00   58.9    18    4.0   345     8.8   878.3    0.00 
  39   23:40   0.00   61.4    16    4.3   319     9.3   878.3    0.00 
  39   23:50   0.00   60.9    17    2.6   304     5.3   878.3    0.00 
  40    0:00   0.00   60.5    17    3.6   309     9.9   878.3    0.00 
  40    0:10   0.00   59.6    18    4.5   291     8.9   878.3    0.00 
  40    0:20   0.00   57.5    20    4.8   291    11.0   878.2    0.00 
  40    0:30   0.00   59.8    18    3.6   320     6.4   878.2    0.00 
  40    0:40   0.00   60.1    17    2.8   295     8.4   878.2    0.00 
  40    0:50   0.00   61.3    16    3.3   315     8.6   878.2    0.00 
  40    1:00   0.00   60.2    17    3.8   288    10.4   878.3    0.00 
  40    1:10   0.00   58.8    18    5.9   330     9.0   878.3    0.00 
  40    1:20   0.00   60.2    17    6.8   322    11.3   878.3    0.00 
  40    1:30   0.00   59.7    18    5.0   313     7.7   878.3    0.00 
  40    1:40   0.00   58.2    19    6.8   315    10.8   878.1    0.00 
  40    1:50   0.00   58.5    19    6.4   301    10.2   878.1    0.00 
  40    2:00   0.00   57.8    20    6.4   311     8.6   878.1    0.00 
  40    2:10   0.00   57.7    19    5.2   313     8.8   878.1    0.00 
  40    2:20   0.00   58.9    18    4.8   304     8.4   878.0    0.00 
  40    2:30   0.00   58.8    18    4.5   304     7.7   878.0    0.00 
  40    2:40   0.00   59.2    17    3.4   278     5.7   877.9    0.00 
  40    2:50   0.00   58.9    16    2.6   324    10.5   877.9    0.00 
  40    3:00   0.00   61.4    14    4.2    33     7.3   877.9    0.00 
  40    3:10   0.00   60.4    15    3.9    36     8.9   877.9    0.00 
  40    3:20   0.00   59.7    15    3.5    43     7.5   877.8    0.00 
  40    3:30   0.00   59.7    14    3.6    30    11.3   877.7    0.00 
  40    3:40   0.00   60.7    14    2.5    40     7.4   877.8    0.00 
  40    3:50   0.00   59.9    14    2.4   360     6.3   877.8    0.00 
  40    4:00   0.00   58.7    15    3.2    13     6.8   877.9    0.00 
  40    4:10   0.00   58.5    15    2.2   308     5.8   877.9    0.00 
  40    4:20   0.00   60.3    14    2.7   351     7.5   877.9    0.00 
  40    4:30   0.00   59.8    14    2.8     0     6.6   877.9    0.00 
  40    4:40   0.00   60.9    13    4.1    46     9.6   877.8    0.00 
  40    4:50   0.00   60.9    13    2.8    20     7.0   877.8    0.00 
  40    5:00   0.00   59.0    14    3.1   305     6.9   877.9    0.00 
  40    5:10   0.00   57.0    15    2.1   353     6.5   878.0    0.00 
  40    5:20   0.00   56.5    16    1.4   284     4.3   878.0    0.00 
  40    5:30   0.00   57.4    15    3.1    49     6.9   877.9    0.00 
  40    5:40   0.00   57.8    15    2.6    51     7.9   877.9    0.00 
  40    5:50   0.00   54.2    18    3.4   310     5.3   877.9    0.00 
  40    6:00   0.00   54.3    17    2.7   294     5.0   877.8    0.00 
  40    6:10   0.00   54.8    17    2.6   287     4.7   877.9    0.00 
  40    6:20   0.00   54.1    17    4.3   296     7.5   877.9    0.00 
  40    6:30   0.00   57.3    15    3.9   323     8.1   877.9    0.00 
  40    6:40   0.00   58.2    14    1.6   298     4.9   877.9    0.00 
  40    6:50   0.01   56.6    15    2.6   281     5.2   878.0    0.00 
  40    7:00   0.03   56.2    16    2.5   268     4.0   878.0    0.00 
  40    7:10   0.06   57.4    16    2.9   298     6.2   878.0    0.00 
  40    7:20   0.09   58.3    15    2.5   295     4.5   878.0    0.00 
  40    7:30   0.12   61.8    14    2.4   265     5.0   878.1    0.00 
  40    7:40   0.16   62.6    14    1.9    53     4.4   878.3    0.00 
  40    7:50   0.19   65.1    14    1.3   128     3.3   878.3    0.00 
  40    8:00   0.23   65.4    14    2.0   158     3.7   878.5    0.00 
  40    8:10   0.26   65.6    14    1.9   185     3.2   878.6    0.00 
  40    8:20   0.29   67.0    14    1.4   196     2.6   878.8    0.00 
  40    8:30   0.33   68.0    13    1.0   324     2.3   878.9    0.00 
  40    8:40   0.36   68.1    13    1.4   208     3.7   879.0    0.00 
  40    8:50   0.40   66.5    16    3.5   198     4.7   879.2    0.00 
  40    9:00   0.43   67.6    15    1.9   197     3.1   879.3    0.00 
  40    9:10   0.46   66.6    16    3.5   198     5.5   879.4    0.00 
  40    9:20   0.48   66.4    16    2.3   176     3.4   879.4    0.00 
  40    9:30   0.51   67.0    15    2.8   185     4.9   879.5    0.00 
  40    9:40   0.54   66.2    16    3.6   162     5.8   879.5    0.00 
  40    9:50   0.56   66.8    16    1.9   184     4.0   879.7    0.00 
  40   10:00   0.58   67.7    15    2.0   122     5.5   879.7    0.00 
  40   10:10   0.61   66.9    15    3.3   142     5.7   879.7    0.00 
  40   10:20   0.62   66.7    14    1.9   160     4.2   879.7    0.00 
  40   10:30   0.65   68.2    14    2.0   179     5.0   879.6    0.00 
  40   10:40   0.66   69.5    14    2.0   178     4.4   879.7    0.00 
  40   10:50   0.68   68.8    14    2.9   138     5.8   879.5    0.00 
  40   11:00   0.69   68.1    14    3.4   200     6.0   879.4    0.00 
  40   11:10   0.70   68.3    14    2.5   194     5.6   879.4    0.00 
  40   11:20   0.71   69.2    15    2.5   226     6.4   879.3    0.00 
  40   11:30   0.71   68.8    15    6.2   250    14.1   879.1    0.00 
  40   11:40   0.72   67.4    14    8.6   296    14.2   879.0    0.00 
  40   11:50   0.73   67.7    14    8.3   303    13.8   878.9    0.00 
  40   12:00   0.73   67.6    14    9.3   300    14.7   878.7    0.00 
  40   12:10   0.73   67.6    14    8.6   305    14.3   878.5    0.00 
  40   12:20   0.73   68.1    13    9.9   301    14.2   878.3    0.00 
  40   12:30   0.72   67.3    14   11.8   308    15.9   878.1    0.00 
  40   12:40   0.71   66.4    14   12.3   301    16.0   877.9    0.00 
  40   12:50   0.71   66.9    13   10.3   290    14.7   877.7    0.00 
  40   13:00   0.70   67.4    14    7.6   283    11.6   877.7    0.00 

Return to Sweeney Granite Mountains graphs page.


Western Regional Climate Center,wrcc@dri.edu